createdAt,value
2023-02-02T00:01:17.215Z,87.52
2023-02-02T00:03:20.556Z,87.84
2023-02-02T00:05:24.246Z,88.36
2023-02-02T00:07:27.807Z,88.56
2023-02-02T00:09:33.691Z,88.20
2023-02-02T00:11:37.011Z,88.43
2023-02-02T00:13:41.082Z,88.37
2023-02-02T00:15:44.382Z,88.19
2023-02-02T00:17:47.707Z,88.28
2023-02-02T00:19:51.043Z,87.44
2023-02-02T00:21:54.825Z,88.15
2023-02-02T00:23:58.187Z,88.52
2023-02-02T00:26:02.837Z,88.82
2023-02-02T00:28:06.389Z,88.25
2023-02-02T00:30:11.106Z,87.90
2023-02-02T00:32:15.488Z,88.33
2023-02-02T00:34:20.592Z,88.51
2023-02-02T00:36:24.068Z,88.16
2023-02-02T00:38:27.518Z,87.48
2023-02-02T00:40:30.849Z,87.99
2023-02-02T00:42:35.568Z,87.24
2023-02-02T00:44:56.705Z,87.97
2023-02-02T00:47:00.059Z,87.81
2023-02-02T00:49:03.434Z,87.63
2023-02-02T00:51:07.055Z,87.65
2023-02-02T00:53:10.454Z,87.32
2023-02-02T00:55:14.814Z,87.43
2023-02-02T00:57:18.152Z,87.47
2023-02-02T00:59:22.872Z,87.44
2023-02-02T01:01:26.293Z,87.60
2023-02-02T01:03:29.637Z,87.84
2023-02-02T01:05:33.313Z,88.32
2023-02-02T01:07:36.614Z,89.15
2023-02-02T01:09:40.108Z,88.94
2023-02-02T01:11:43.373Z,89.21
2023-02-02T01:13:46.738Z,88.69
2023-02-02T01:15:56.926Z,88.70
2023-02-02T01:18:00.258Z,88.69
2023-02-02T01:20:05.929Z,88.96
2023-02-02T01:22:10.114Z,89.18
2023-02-02T01:24:13.432Z,89.09
2023-02-02T01:26:17.474Z,88.75
2023-02-02T01:28:21.140Z,89.42
2023-02-02T01:30:24.492Z,89.71
2023-02-02T01:32:29.267Z,90.50
2023-02-02T01:34:32.563Z,91.04
2023-02-02T01:36:36.075Z,91.49
2023-02-02T01:38:40.137Z,91.59
2023-02-02T01:40:47.284Z,92.99
2023-02-02T01:42:50.763Z,93.38
2023-02-02T01:45:17.379Z,93.04
2023-02-02T01:47:25.864Z,94.16
2023-02-02T01:49:30.559Z,94.46
2023-02-02T01:51:41.735Z,94.77
2023-02-02T01:53:47.494Z,95.02
2023-02-02T01:55:52.045Z,95.27
2023-02-02T01:58:07.598Z,95.07
2023-02-02T02:00:16.812Z,94.72
2023-02-02T02:02:21.001Z,94.93
2023-02-02T02:04:26.426Z,95.23
2023-02-02T02:06:31.254Z,94.83
2023-02-02T02:08:38.820Z,95.08
2023-02-02T02:10:42.268Z,95.39
2023-02-02T02:12:46.027Z,95.20
2023-02-02T02:15:09.133Z,94.80
2023-02-02T02:17:32.847Z,94.66
2023-02-02T02:20:31.419Z,94.71
2023-02-02T02:23:05.910Z,94.57
2023-02-02T02:25:46.294Z,94.87
2023-02-02T02:28:17.854Z,94.78
2023-02-02T02:30:42.677Z,94.91
2023-02-02T02:32:53.637Z,94.56
2023-02-02T02:35:04.629Z,94.49
2023-02-02T02:37:12.534Z,94.23
2023-02-02T02:39:23.607Z,94.14
2023-02-02T02:41:33.635Z,93.81
2023-02-02T02:43:42.404Z,93.23
2023-02-02T02:45:46.419Z,93.63
2023-02-02T02:47:53.303Z,93.90
2023-02-02T02:49:57.854Z,93.75
2023-02-02T02:52:01.676Z,93.86
2023-02-02T02:54:11.313Z,93.51
2023-02-02T02:56:23.755Z,93.12
2023-02-02T02:58:37.575Z,92.83
2023-02-02T03:00:51.709Z,92.99
2023-02-02T03:03:04.619Z,92.91
2023-02-02T03:05:18.944Z,92.84
2023-02-02T03:07:27.405Z,93.56
2023-02-02T03:09:35.027Z,93.43
2023-02-02T03:11:38.594Z,93.49
2023-02-02T03:13:43.442Z,92.92
2023-02-02T03:15:47.498Z,92.67
2023-02-02T03:17:53.019Z,92.80
2023-02-02T03:19:57.650Z,92.90
2023-02-02T03:22:01.323Z,93.38
2023-02-02T03:24:05.400Z,93.54
2023-02-02T03:26:08.946Z,93.70
2023-02-02T03:28:12.775Z,93.81
2023-02-02T03:30:17.041Z,93.98
2023-02-02T03:32:20.469Z,93.65
2023-02-02T03:34:23.815Z,93.99
2023-02-02T03:36:28.719Z,93.95
2023-02-02T03:38:32.126Z,94.03
2023-02-02T03:40:35.784Z,94.01
2023-02-02T03:42:39.367Z,94.22
2023-02-02T03:44:42.736Z,94.46
2023-02-02T03:46:46.162Z,95.45
2023-02-02T03:48:49.565Z,95.10
2023-02-02T03:50:53.090Z,95.69
2023-02-02T03:52:57.982Z,95.71
2023-02-02T03:55:01.570Z,96.09
2023-02-02T03:57:05.242Z,95.83
2023-02-02T03:59:08.833Z,96.17
2023-02-02T04:01:14.714Z,95.97
2023-02-02T04:03:18.913Z,95.86
2023-02-02T04:05:22.635Z,96.64
2023-02-02T04:07:26.572Z,97.05
2023-02-02T04:09:31.516Z,97.22
2023-02-02T04:11:35.231Z,97.27
2023-02-02T04:13:39.967Z,97.33
2023-02-02T04:15:43.494Z,97.14
2023-02-02T04:17:47.291Z,97.15
2023-02-02T04:19:53.199Z,97.11
2023-02-02T04:21:56.819Z,97.29
2023-02-02T04:24:00.699Z,97.68
2023-02-02T04:26:06.486Z,97.94
2023-02-02T04:28:09.977Z,97.47
2023-02-02T04:30:13.784Z,97.43
2023-02-02T04:32:17.967Z,97.02
2023-02-02T04:34:21.880Z,96.95
2023-02-02T04:36:25.439Z,97.29
2023-02-02T04:38:29.193Z,97.46
2023-02-02T04:40:32.768Z,97.48
2023-02-02T04:42:37.636Z,98.08
2023-02-02T04:44:41.160Z,97.36
2023-02-02T04:46:45.105Z,97.14
2023-02-02T04:48:50.213Z,97.79
2023-02-02T04:50:59.529Z,98.30
2023-02-02T04:53:02.929Z,98.88
2023-02-02T04:55:06.670Z,99.08
2023-02-02T04:57:10.231Z,99.27
2023-02-02T04:59:15.164Z,98.90
2023-02-02T05:01:20.794Z,99.26
2023-02-02T05:03:24.220Z,99.41
2023-02-02T05:05:27.580Z,99.37
2023-02-02T05:07:31.432Z,99.71
2023-02-02T05:09:34.743Z,99.78
2023-02-02T05:11:38.920Z,100.00
2023-02-02T05:13:46.695Z,100.00
2023-02-02T05:15:51.390Z,99.58
2023-02-02T05:17:54.746Z,99.59
2023-02-02T05:19:58.430Z,99.76
2023-02-02T05:22:02.630Z,98.95
2023-02-02T05:24:06.812Z,98.99
2023-02-02T05:26:15.932Z,98.36
2023-02-02T05:28:19.265Z,98.24
2023-02-02T05:30:22.988Z,97.99
2023-02-02T05:32:28.775Z,98.39
2023-02-02T05:34:32.044Z,98.66
2023-02-02T05:36:35.358Z,98.50
2023-02-02T05:38:38.721Z,99.04
2023-02-02T05:40:42.237Z,98.54
2023-02-02T05:42:49.050Z,98.76
2023-02-02T05:44:52.366Z,99.00
2023-02-02T05:46:56.051Z,99.09
2023-02-02T05:49:04.830Z,99.21
2023-02-02T05:51:15.313Z,99.01
2023-02-02T05:53:18.652Z,98.96
2023-02-02T05:55:22.292Z,99.47
2023-02-02T05:57:25.726Z,99.69
2023-02-02T05:59:29.423Z,99.75
2023-02-02T06:01:32.780Z,99.57
2023-02-02T06:03:36.592Z,99.15
2023-02-02T06:05:41.426Z,98.58
2023-02-02T06:07:44.793Z,99.16
2023-02-02T06:09:48.208Z,99.11
2023-02-02T06:11:51.623Z,99.54
2023-02-02T06:13:54.935Z,98.98
2023-02-02T06:15:58.375Z,98.26
2023-02-02T06:18:01.764Z,98.92
2023-02-02T06:20:06.068Z,98.50
2023-02-02T06:22:10.776Z,98.34
2023-02-02T06:24:14.097Z,98.35
2023-02-02T06:26:18.720Z,98.73
2023-02-02T06:28:22.040Z,98.41
2023-02-02T06:30:26.010Z,98.01
2023-02-02T06:32:29.960Z,98.11
2023-02-02T06:34:33.201Z,98.27
2023-02-02T06:36:37.361Z,98.19
2023-02-02T06:38:42.146Z,99.11
2023-02-02T06:40:45.503Z,98.98
2023-02-02T06:42:48.812Z,98.29
2023-02-02T06:44:52.102Z,97.89
2023-02-02T06:46:55.428Z,98.28
2023-02-02T06:48:59.018Z,98.06
2023-02-02T06:51:02.407Z,98.08
2023-02-02T06:53:05.818Z,98.48
2023-02-02T06:55:10.611Z,98.76
2023-02-02T06:57:14.891Z,99.18
2023-02-02T06:59:18.255Z,98.92
2023-02-02T07:01:21.668Z,99.13
2023-02-02T07:03:25.000Z,99.54
2023-02-02T07:05:30.830Z,99.99
2023-02-02T07:07:35.461Z,99.79
2023-02-02T07:09:38.827Z,99.78
2023-02-02T07:11:44.423Z,99.63
2023-02-02T07:13:50.605Z,99.03
2023-02-02T07:15:54.659Z,98.87
2023-02-02T07:17:58.083Z,98.93
2023-02-02T07:20:01.427Z,98.96
2023-02-02T07:22:04.763Z,98.57
2023-02-02T07:24:09.092Z,98.72
2023-02-02T07:26:14.216Z,99.50
2023-02-02T07:28:18.948Z,99.15
2023-02-02T07:30:23.147Z,99.14
2023-02-02T07:32:26.534Z,99.00
2023-02-02T07:34:29.921Z,99.02
2023-02-02T07:36:33.419Z,99.10
2023-02-02T07:38:36.767Z,98.66
2023-02-02T07:40:40.150Z,98.38
2023-02-02T07:42:46.175Z,98.68
2023-02-02T07:44:51.070Z,99.61
2023-02-02T07:46:54.678Z,99.79
2023-02-02T07:48:58.377Z,99.79
2023-02-02T07:51:01.920Z,99.97
2023-02-02T07:53:05.327Z,100.00
2023-02-02T07:55:14.662Z,99.56
2023-02-02T07:57:18.503Z,99.52
2023-02-02T07:59:22.043Z,99.21
2023-02-02T08:01:28.812Z,99.43
2023-02-02T08:03:32.723Z,99.24
2023-02-02T08:05:36.091Z,99.31
2023-02-02T08:07:39.415Z,99.85
2023-02-02T08:09:47.708Z,99.79
2023-02-02T08:11:51.351Z,99.01
2023-02-02T08:13:57.135Z,99.04
2023-02-02T08:16:00.770Z,99.05
2023-02-02T08:18:05.457Z,99.36
2023-02-02T08:20:10.066Z,99.07
2023-02-02T08:22:13.485Z,98.99
2023-02-02T08:24:16.776Z,98.81
2023-02-02T08:26:23.395Z,98.92
2023-02-02T08:28:26.849Z,98.75
2023-02-02T08:30:30.164Z,98.31
2023-02-02T08:32:33.444Z,98.21
2023-02-02T08:34:38.432Z,98.42
2023-02-02T08:36:42.111Z,99.12
2023-02-02T08:38:45.486Z,98.92
2023-02-02T08:40:48.911Z,98.71
2023-02-02T08:42:54.675Z,98.21
2023-02-02T08:46:01.395Z,99.39
2023-02-02T08:47:21.640Z,99.71
2023-02-02T08:49:25.830Z,99.29
2023-02-02T08:51:30.899Z,98.89
2023-02-02T08:53:34.868Z,99.34
2023-02-02T08:55:38.546Z,99.24
2023-02-02T08:57:42.114Z,99.01
2023-02-02T08:59:45.425Z,99.22
2023-02-02T09:01:48.762Z,99.54
2023-02-02T09:03:54.752Z,100.00
2023-02-02T09:05:58.165Z,99.61
2023-02-02T09:08:02.869Z,99.17
2023-02-02T09:10:06.593Z,99.11
2023-02-02T09:12:09.947Z,99.20
2023-02-02T09:14:14.318Z,99.31
2023-02-02T09:16:19.948Z,99.54
2023-02-02T09:18:23.345Z,99.52
2023-02-02T09:20:26.651Z,99.14
2023-02-02T09:22:29.984Z,99.17
2023-02-02T09:24:34.595Z,98.93
2023-02-02T09:26:38.663Z,99.02
2023-02-02T09:28:43.639Z,98.82
2023-02-02T09:30:46.978Z,99.25
2023-02-02T09:32:51.011Z,99.79
2023-02-02T09:34:54.315Z,99.86
2023-02-02T09:36:57.731Z,99.83
2023-02-02T09:39:01.243Z,100.00
2023-02-02T09:41:24.403Z,100.00
2023-02-02T09:43:45.745Z,100.00
2023-02-02T09:45:57.822Z,100.00
2023-02-02T09:48:12.618Z,100.00
2023-02-02T09:50:19.718Z,100.00
2023-02-02T09:52:27.639Z,100.00
2023-02-02T09:54:38.263Z,100.00
2023-02-02T09:56:44.552Z,100.00
2023-02-02T09:58:53.022Z,100.00
2023-02-02T10:01:02.753Z,100.00
2023-02-02T10:03:14.009Z,100.00
2023-02-02T10:05:23.676Z,100.00
2023-02-02T10:07:33.287Z,100.00
2023-02-02T10:09:43.570Z,100.00
2023-02-02T10:11:54.150Z,100.00
2023-02-02T10:14:01.349Z,100.00
2023-02-02T10:16:13.413Z,100.00
2023-02-02T10:18:22.001Z,100.00
2023-02-02T10:20:43.673Z,100.00
2023-02-02T10:22:48.861Z,100.00
2023-02-02T10:24:52.506Z,100.00
2023-02-02T10:27:04.005Z,100.00
2023-02-02T10:29:16.571Z,100.00
2023-02-02T10:31:30.253Z,100.00
2023-02-02T10:33:38.910Z,100.00
2023-02-02T10:35:50.404Z,100.00
2023-02-02T10:37:58.395Z,100.00
2023-02-02T10:40:16.113Z,100.00
2023-02-02T10:42:31.013Z,100.00
2023-02-02T10:44:43.842Z,100.00
2023-02-02T10:46:50.433Z,100.00
2023-02-02T10:49:12.086Z,100.00
2023-02-02T10:51:21.069Z,100.00
2023-02-02T10:53:29.507Z,100.00
2023-02-02T10:55:41.610Z,99.80
2023-02-02T10:57:58.277Z,99.48
2023-02-02T11:00:09.523Z,99.65
2023-02-02T11:02:20.871Z,99.05
2023-02-02T11:04:42.199Z,98.76
2023-02-02T11:06:52.252Z,98.88
2023-02-02T11:08:59.387Z,99.22
2023-02-02T11:11:12.632Z,98.97
2023-02-02T11:13:29.174Z,98.81
2023-02-02T11:15:32.835Z,97.94
2023-02-02T11:17:36.402Z,97.46
2023-02-02T11:19:39.807Z,97.33
2023-02-02T11:21:48.489Z,97.63
2023-02-02T11:23:56.394Z,97.46
2023-02-02T11:26:02.196Z,97.94
2023-02-02T11:28:18.798Z,98.19
2023-02-02T11:30:31.653Z,97.56
2023-02-02T11:32:35.479Z,97.55
2023-02-02T11:34:38.765Z,97.32
2023-02-02T11:36:42.086Z,97.43
2023-02-02T11:38:45.443Z,97.70
2023-02-02T11:40:55.314Z,96.95
2023-02-02T11:43:00.835Z,97.00
2023-02-02T11:45:05.936Z,96.97
2023-02-02T11:47:21.447Z,96.14
2023-02-02T11:49:25.337Z,96.23
2023-02-02T11:51:30.681Z,95.82
2023-02-02T11:53:35.709Z,95.90
2023-02-02T11:55:39.213Z,95.34
2023-02-02T11:58:05.548Z,95.86
2023-02-02T12:00:18.905Z,95.15
2023-02-02T12:02:31.732Z,94.52
2023-02-02T12:04:35.109Z,94.50
2023-02-02T12:06:39.166Z,94.84
2023-02-02T12:08:42.499Z,94.46
2023-02-02T12:10:52.450Z,94.16
2023-02-02T12:13:02.969Z,94.04
2023-02-02T12:15:23.758Z,93.90
2023-02-02T12:17:38.858Z,93.84
2023-02-02T12:20:03.135Z,93.62
2023-02-02T12:22:17.530Z,93.11
2023-02-02T12:24:31.322Z,92.78
2023-02-02T12:26:36.895Z,92.44
2023-02-02T12:28:50.254Z,93.01
2023-02-02T12:30:59.920Z,92.40
2023-02-02T12:33:17.680Z,92.01
2023-02-02T12:35:36.060Z,91.83
2023-02-02T12:37:51.566Z,91.86
2023-02-02T12:40:11.937Z,92.71
2023-02-02T12:42:29.551Z,92.38
2023-02-02T12:44:46.452Z,91.53
2023-02-02T12:47:00.626Z,92.17
2023-02-02T12:49:23.298Z,91.89
2023-02-02T12:51:40.928Z,91.20
2023-02-02T12:54:34.811Z,91.07
2023-02-02T12:56:44.751Z,90.86
2023-02-02T12:58:59.179Z,91.50
2023-02-02T13:01:23.812Z,90.78
2023-02-02T13:03:37.099Z,90.81
2023-02-02T13:05:54.623Z,90.65
2023-02-02T13:08:02.967Z,89.78
2023-02-02T13:10:18.365Z,90.36
2023-02-02T13:12:24.794Z,90.17
2023-02-02T13:14:31.293Z,90.20
2023-02-02T13:16:38.117Z,89.89
2023-02-02T13:18:50.415Z,89.48
2023-02-02T13:20:59.402Z,89.98
2023-02-02T13:23:08.070Z,89.92
2023-02-02T13:25:21.617Z,89.30
2023-02-02T13:27:26.228Z,89.43
2023-02-02T13:29:39.051Z,89.65
2023-02-02T13:31:57.826Z,89.70
2023-02-02T13:34:07.236Z,89.86
2023-02-02T13:36:19.355Z,89.31
2023-02-02T13:38:24.662Z,89.10
2023-02-02T13:40:33.521Z,89.04
2023-02-02T13:42:44.271Z,88.81
2023-02-02T13:44:54.030Z,88.75
2023-02-02T13:47:02.097Z,88.75
2023-02-02T13:49:10.726Z,89.01
2023-02-02T13:51:49.751Z,90.08
2023-02-02T13:54:15.662Z,90.53
2023-02-02T13:56:49.013Z,90.10
2023-02-02T13:59:05.873Z,89.56
2023-02-02T14:01:14.014Z,89.52
2023-02-02T14:03:31.196Z,90.07
2023-02-02T14:05:37.807Z,90.42
2023-02-02T14:07:44.725Z,90.38
2023-02-02T14:09:49.637Z,90.79
2023-02-02T14:11:58.129Z,91.08
2023-02-02T14:14:27.862Z,91.06
2023-02-02T14:16:53.306Z,91.21
2023-02-02T14:18:57.504Z,90.44
2023-02-02T14:21:00.859Z,90.95
2023-02-02T14:23:46.297Z,90.21
2023-02-02T14:26:07.027Z,89.51
2023-02-02T14:28:11.937Z,89.71
2023-02-02T14:30:22.710Z,89.18
2023-02-02T14:32:33.983Z,88.52
2023-02-02T14:34:39.376Z,88.29
2023-02-02T14:36:55.192Z,88.04
2023-02-02T14:39:19.626Z,87.74
2023-02-02T14:41:51.541Z,87.37
2023-02-02T14:43:55.032Z,87.06
2023-02-02T14:46:22.587Z,86.64
2023-02-02T14:48:26.787Z,86.75
2023-02-02T14:50:43.237Z,86.61
2023-02-02T14:52:56.332Z,86.34
2023-02-02T14:55:01.123Z,86.82
2023-02-02T14:57:07.900Z,86.42
2023-02-02T14:59:19.984Z,85.50
2023-02-02T15:01:27.119Z,86.24
2023-02-02T15:03:52.937Z,85.82
2023-02-02T15:06:04.194Z,85.69
2023-02-02T15:08:15.226Z,86.40
2023-02-02T15:11:01.334Z,86.81
2023-02-02T15:13:08.632Z,86.28
2023-02-02T15:15:23.018Z,85.93
2023-02-02T15:17:35.371Z,85.63
2023-02-02T15:19:43.186Z,85.86
2023-02-02T15:21:50.162Z,85.81
2023-02-02T15:23:53.633Z,85.79
2023-02-02T15:26:02.246Z,86.16
2023-02-02T15:28:18.539Z,85.37
2023-02-02T15:30:23.960Z,85.08
2023-02-02T15:32:28.424Z,85.35
2023-02-02T15:34:40.288Z,85.69
2023-02-02T15:36:47.620Z,85.62
2023-02-02T15:38:54.295Z,85.39
2023-02-02T15:40:58.043Z,85.88
2023-02-02T15:43:05.167Z,85.72
2023-02-02T15:45:31.712Z,85.91
2023-02-02T15:47:42.116Z,86.36
2023-02-02T15:49:46.275Z,86.70
2023-02-02T15:51:52.092Z,86.04
2023-02-02T15:53:55.394Z,85.69
2023-02-02T15:55:59.175Z,86.28
2023-02-02T15:58:03.236Z,86.41
2023-02-02T16:00:27.084Z,85.53
2023-02-02T16:02:40.794Z,85.51
2023-02-02T16:04:44.784Z,85.28
2023-02-02T16:06:49.207Z,85.21
2023-02-02T16:08:52.921Z,84.89
2023-02-02T16:11:08.509Z,84.50
2023-02-02T16:13:26.177Z,85.13
2023-02-02T16:15:31.950Z,84.59
2023-02-02T16:17:36.270Z,84.70
2023-02-02T16:19:42.072Z,84.30
2023-02-02T16:21:49.547Z,83.94
2023-02-02T16:23:54.006Z,84.54
2023-02-02T16:25:59.991Z,84.69
2023-02-02T16:28:03.776Z,84.46
2023-02-02T16:30:09.591Z,84.40
2023-02-02T16:32:29.366Z,84.42
2023-02-02T16:34:47.241Z,84.38
2023-02-02T16:37:06.870Z,84.58
2023-02-02T16:39:17.307Z,84.24
2023-02-02T16:41:29.782Z,84.71
2023-02-02T16:43:34.174Z,85.36
2023-02-02T16:45:46.445Z,85.54
2023-02-02T16:47:55.334Z,85.65
2023-02-02T16:50:20.532Z,87.01
2023-02-02T16:52:23.961Z,87.45
2023-02-02T16:54:27.359Z,87.42
2023-02-02T16:56:34.484Z,89.07
2023-02-02T16:58:44.687Z,89.51
2023-02-02T17:01:08.769Z,90.99
2023-02-02T17:03:19.369Z,91.79
2023-02-02T17:05:25.863Z,92.34
2023-02-02T17:07:30.676Z,92.63
2023-02-02T17:09:36.428Z,92.64
2023-02-02T17:11:39.858Z,92.37
2023-02-02T17:13:43.291Z,92.75
2023-02-02T17:15:53.404Z,92.81
2023-02-02T17:17:56.827Z,92.64
2023-02-02T17:20:01.514Z,92.81
2023-02-02T17:22:06.211Z,93.39
2023-02-02T17:24:10.212Z,93.95
2023-02-02T17:26:14.018Z,94.18
2023-02-02T17:28:20.367Z,95.00
2023-02-02T17:30:23.988Z,94.90
2023-02-02T17:32:27.411Z,95.09
2023-02-02T17:34:30.923Z,95.04
2023-02-02T17:36:35.627Z,95.02
2023-02-02T17:38:39.408Z,94.94
2023-02-02T17:40:42.786Z,95.57
2023-02-02T17:42:49.295Z,95.56
2023-02-02T17:44:52.647Z,95.56
2023-02-02T17:46:55.938Z,95.46
2023-02-02T17:49:00.193Z,95.33
2023-02-02T17:51:06.623Z,95.76
2023-02-02T17:53:14.002Z,96.12
2023-02-02T17:55:21.915Z,96.64
2023-02-02T17:57:25.245Z,96.60
2023-02-02T17:59:28.737Z,96.36
2023-02-02T18:01:32.346Z,97.07
2023-02-02T18:03:38.836Z,96.88
2023-02-02T18:05:43.801Z,97.38
2023-02-02T18:07:47.257Z,97.36
2023-02-02T18:09:51.954Z,98.34
2023-02-02T18:11:55.263Z,98.78
2023-02-02T18:13:58.649Z,98.71
2023-02-02T18:16:02.139Z,99.26
2023-02-02T18:18:05.857Z,99.46
2023-02-02T18:20:11.188Z,99.82
2023-02-02T18:22:15.181Z,99.56
2023-02-02T18:24:18.503Z,100.00
2023-02-02T18:26:23.758Z,100.00
2023-02-02T18:28:27.133Z,100.00
2023-02-02T18:30:30.657Z,100.00
2023-02-02T18:32:37.483Z,100.00
2023-02-02T18:34:40.864Z,100.00
2023-02-02T18:36:44.233Z,100.00
2023-02-02T18:38:50.691Z,100.00
2023-02-02T18:40:58.829Z,100.00
2023-02-02T18:43:03.693Z,100.00
2023-02-02T18:45:08.195Z,100.00
2023-02-02T18:47:11.648Z,100.00
2023-02-02T18:49:15.196Z,100.00
2023-02-02T18:51:21.724Z,100.00
2023-02-02T18:53:25.640Z,100.00
2023-02-02T18:55:29.284Z,100.00
2023-02-02T18:57:33.175Z,100.00
2023-02-02T18:59:38.015Z,100.00
2023-02-02T19:01:42.307Z,100.00
2023-02-02T19:03:49.815Z,100.00
2023-02-02T19:06:10.761Z,100.00
2023-02-02T19:08:14.137Z,100.00
2023-02-02T19:10:18.341Z,100.00
2023-02-02T19:12:26.778Z,100.00
2023-02-02T19:14:34.352Z,100.00
2023-02-02T19:16:39.379Z,100.00
2023-02-02T19:18:42.924Z,100.00
2023-02-02T19:20:47.529Z,100.00
2023-02-02T19:22:52.503Z,100.00
2023-02-02T19:24:56.093Z,100.00
2023-02-02T19:26:59.790Z,100.00
2023-02-02T19:29:14.600Z,100.00
2023-02-02T19:31:18.947Z,100.00
2023-02-02T19:33:34.750Z,99.70
2023-02-02T19:35:39.480Z,99.22
2023-02-02T19:37:43.362Z,99.71
2023-02-02T19:39:47.172Z,99.97
2023-02-02T19:41:52.913Z,99.38
2023-02-02T19:43:59.420Z,99.12
2023-02-02T19:46:02.989Z,99.83
2023-02-02T19:48:16.060Z,99.91
2023-02-02T19:50:25.147Z,99.29
2023-02-02T19:52:29.824Z,99.36
2023-02-02T19:54:35.426Z,99.14
2023-02-02T19:56:40.428Z,98.49
2023-02-02T19:58:43.985Z,98.61
2023-02-02T20:00:48.223Z,98.18
2023-02-02T20:03:00.168Z,97.84
2023-02-02T20:05:15.222Z,97.08
2023-02-02T20:07:20.083Z,97.60
2023-02-02T20:09:24.292Z,97.36
2023-02-02T20:11:33.039Z,97.02
2023-02-02T20:13:43.374Z,97.50
2023-02-02T20:15:48.059Z,97.45
2023-02-02T20:17:52.507Z,97.05
2023-02-02T20:19:56.196Z,97.08
2023-02-02T20:21:59.607Z,96.71
2023-02-02T20:24:04.926Z,96.46
2023-02-02T20:26:22.635Z,95.89
2023-02-02T20:28:41.403Z,95.94
2023-02-02T20:30:44.735Z,95.83
2023-02-02T20:32:52.285Z,95.74
2023-02-02T20:34:58.294Z,95.66
2023-02-02T20:37:03.833Z,95.58
2023-02-02T20:39:28.788Z,96.00
2023-02-02T20:41:32.391Z,95.82
2023-02-02T20:43:35.896Z,95.97
2023-02-02T20:45:39.661Z,95.50
2023-02-02T20:47:44.483Z,95.48
2023-02-02T20:49:48.493Z,95.79
2023-02-02T20:51:52.581Z,95.63
2023-02-02T20:53:56.320Z,96.84
2023-02-02T20:56:02.680Z,96.97
2023-02-02T20:58:06.550Z,97.04
2023-02-02T21:00:12.787Z,97.47
2023-02-02T21:02:19.796Z,96.96
2023-02-02T21:04:23.783Z,97.73
2023-02-02T21:06:28.702Z,97.33
2023-02-02T21:08:32.455Z,97.46
2023-02-02T21:10:35.760Z,97.62
2023-02-02T21:12:40.403Z,97.09
2023-02-02T21:14:44.869Z,97.23
2023-02-02T21:16:48.251Z,97.03
2023-02-02T21:18:51.721Z,96.96
2023-02-02T21:20:55.077Z,96.16
2023-02-02T21:22:58.417Z,96.71
2023-02-02T21:25:01.753Z,96.42
2023-02-02T21:27:05.244Z,96.21
2023-02-02T21:29:10.547Z,95.80
2023-02-02T21:31:16.553Z,96.46
2023-02-02T21:33:20.000Z,96.58
2023-02-02T21:35:23.483Z,96.69
2023-02-02T21:37:27.327Z,95.85
2023-02-02T21:39:33.943Z,96.08
2023-02-02T21:41:38.721Z,95.65
2023-02-02T21:43:42.292Z,95.65
2023-02-02T21:45:51.173Z,95.44
2023-02-02T21:47:56.827Z,95.24
2023-02-02T21:50:12.667Z,95.58
2023-02-02T21:52:18.713Z,95.37
2023-02-02T21:54:24.965Z,95.42
2023-02-02T21:56:33.813Z,95.20
2023-02-02T21:58:38.427Z,94.46
2023-02-02T22:00:42.056Z,94.25
2023-02-02T22:02:50.264Z,93.92
2023-02-02T22:04:55.393Z,94.48
2023-02-02T22:07:02.217Z,94.88
2023-02-02T22:09:16.256Z,93.98
2023-02-02T22:11:25.211Z,94.01
2023-02-02T22:13:35.207Z,93.77
2023-02-02T22:15:39.138Z,94.65
2023-02-02T22:17:44.738Z,95.35
2023-02-02T22:19:51.210Z,94.92
2023-02-02T22:21:59.252Z,95.54
2023-02-02T22:24:02.722Z,95.46
2023-02-02T22:26:06.999Z,95.58
2023-02-02T22:28:19.005Z,95.17
2023-02-02T22:30:28.667Z,95.09
2023-02-02T22:32:32.231Z,94.63
2023-02-02T22:34:35.652Z,94.60
2023-02-02T22:36:40.302Z,95.07
2023-02-02T22:38:43.646Z,95.18
2023-02-02T22:40:47.257Z,94.76
2023-02-02T22:42:50.572Z,94.78
2023-02-02T22:44:53.867Z,95.11
2023-02-02T22:46:57.835Z,94.98
2023-02-02T22:49:01.270Z,94.83
2023-02-02T22:51:04.746Z,93.97
2023-02-02T22:53:09.551Z,94.38
2023-02-02T22:55:13.948Z,94.27
2023-02-02T22:57:17.314Z,94.65
2023-02-02T22:59:20.621Z,94.86
2023-02-02T23:01:23.887Z,94.70
2023-02-02T23:03:27.330Z,95.26
2023-02-02T23:05:30.656Z,94.49
2023-02-02T23:07:33.932Z,94.20
2023-02-02T23:09:38.725Z,93.94
2023-02-02T23:11:42.238Z,93.83
2023-02-02T23:13:45.520Z,93.85
2023-02-02T23:15:48.850Z,94.17
2023-02-02T23:17:52.176Z,93.88
2023-02-02T23:19:55.618Z,94.05
2023-02-02T23:21:58.983Z,93.38
2023-02-02T23:24:02.295Z,93.63
2023-02-02T23:26:07.158Z,93.54
2023-02-02T23:28:10.565Z,94.22
2023-02-02T23:30:15.299Z,94.06
2023-02-02T23:32:18.716Z,93.87
2023-02-02T23:34:22.318Z,94.21
2023-02-02T23:36:25.653Z,93.80
2023-02-02T23:38:28.965Z,94.25
2023-02-02T23:40:32.270Z,93.91
2023-02-02T23:42:37.529Z,93.82
2023-02-02T23:44:41.203Z,94.19
2023-02-02T23:46:44.695Z,93.74
2023-02-02T23:48:48.741Z,93.71
2023-02-02T23:50:52.179Z,94.10
2023-02-02T23:52:55.828Z,94.34
2023-02-02T23:55:00.612Z,94.72
2023-02-02T23:57:04.580Z,94.05
2023-02-02T23:59:09.658Z,94.61
